Malibu, CA

1:34 PM PDT on September 20, 2014 (GMT -0700)
Van Nuys | Change Station
CLOSE
Current Station
Airport
Location: Van Nuys,
Elevation: 801 ft
Nearby Weather Stations

Elev 801 ft 34.22 °N, 118.49 °W | Updated 43 minutes ago

Mostly Cloudy
Mostly Cloudy
73 °F
Feels Like 73 °F
N
0
Wind Variable Wind from North

Today
High -- | Low -- °F
--% Chance of Precip.
Yesterday
High -- | Low -- °F
Precip. -- in
6:42 AM 6:54 PM
Waning Crescent, 10% visible
Pressure 29.93 in
Visibility 10.0 miles
Clouds Overcast 2400 ft
Dew Point 60 °F
Humidity 64%
Rainfall 0.00 in
Snow Depth 0 in , 0 in , 0 in
UV 3 out of 12
Pollen 6.80 out of 12
Ozone Good
Flu Activity Not available.
METAR KVNY 201951Z 00000KT 10SM OVC024 23/16 A2995 RMK AO2 SLP133 T02280156

More Conditions Fewer Conditions

Pressure 29.93 in
Visibility 10.0 miles
Clouds Overcast 2400 ft
Dew Point 60 °F
Humidity 64%
Rainfall 0.00 in
Snow Depth 0 in , 0 in , 0 in
UV 3 out of 12
Pollen 6.80 out of 12
Ozone Good
Flu Activity Not available.
METAR KVNY 201951Z 00000KT 10SM OVC024 23/16 A2995 RMK AO2 SLP133 T02280156

More Conditions Fewer Conditions

10-Day Weather Forecast

Almanac

Astronomy

Sep. 20, 2014 Rise Set
Actual Time 6:42 AM PDT 6:54 PM PDT
Civil Twilight 6:17 AM PDT 7:19 PM PDT
Nautical Twilight 5:47 AM PDT 7:48 PM PDT
Astronomical Twilight 5:18 AM PDT 8:18 PM PDT
Moon 3:32 AM PDT 4:54 PM PDT
Length of Visible Light 13h 02m
Length of Day
12h 12m
Tomorrow will be 2m 7s shorter.
Waning Crescent, 10% of the Moon is Illuminated
Today
Waning Crescent
Sep 24
New
Oct 1
First Quarter
Oct 8
Full
Oct 15
Last Quarter

Today's Extremes

State Highs State Lows

Community

WunderPhotos

Upload Photos

1,754,937 photos uploaded!

WunderBlogs® & News

Nearby

Air Quality

  Air Quality AQ Index Pollutant
Yesterday Good
OZONE
Current Good
OZONE
Sunday Good
PM10
Sunday Good
OZONE
Sunday Good
CO
Sunday Good
NO2

Snow Depth

Station Depth Elevation
Monitor Pass 0 in 8350 ft
Leavitt Meadows 0 in 7200 ft
CSS Lab 0 in 6900 ft
Adin Mountain 0 in 6200 ft

Earthquake Activity

City Distance Mag. Time & Date
No recent earthquake activity has been reported nearby.
Minimum magnitude displayed is 2.5.

Coastal Water Temperatures

Place Temperature
Santa Monica Pier 68.0 °F
Los Angeles, CA 66.9 °F
La Jolla, CA 69.1 °F

Nearby Weather Stations